Airfield :
LOGIN :

Register | Disclaimer

   EN    FR    IT 

 










Legend :    VFR   Marginal VFR   IFR   Intensive IFR   Very Intensive IFR
Visi :
Ceiling :
>= 8 km
>= 3000ft
5 to 8 km
1000 to 3000 ft
1500m to 5 km
500 to 1000 ft
800 to 1500m
200 to 500 ft
< 800m
< 200 ft
Symbols :   Thunderstorms  Fog  Heavy snow  Heavy precipitations  Wind > 20 kt
SIGMETs :     Misc.  Thunderstorms  Icing  Turbulence  Mountain Waves  Volcanic Ashes






- Airport Elevation : 74 ft
- IATA code : EIN


EHEH - Eindhoven

CURRENT METAR :
  • 010755Z AUTO 23008KT 180V260 9000 BR BKN006 OVC007 15/14 Q1009 YLO BECMG BKN010

EXPIRED METARs :
  • 010725Z AUTO 22007KT 180V280 5000 BR BKN004 OVC006 15/14 Q1009 YLO BECMG BKN010
  • 010713Z AUTO 23008KT 180V260 7000 BR BKN005 OVC006 15/14 Q1009 YLO BECMG BKN010
  • 010655Z AUTO 22008KT 200V270 9999 BKN006 OVC008 15/13 Q1009 YLO BECMG BKN010
  • 010634Z AUTO 22008KT 200V260 9999 OVC007 14/13 Q1009 GRN BECMG BKN010
  • 010626Z AUTO 22009KT 190V260 9999 OVC006 14/13 Q1009 YLO BECMG BKN010
  • 010618Z AUTO 22009KT 200V260 9999 OVC007 14/13 Q1009 GRN BECMG BKN010
  • 010555Z AUTO 21010KT 190V260 9000 BR OVC006 14/13 Q1009 YLO BECMG BKN010
  • 010525Z AUTO 22009KT 190V250 9000 BR OVC006 14/13 Q1009 YLO BECMG BKN010

TAF TAF EHEH
Valid from the 01 at 06:00 until the 02 at 12:00 UTC


010545Z 0106/0212 22007KT 7000 BR OVC007
BECMG 0107/0109 9999 NSW BKN010 BKN013
BECMG 0109/0111 FEW022 SCT030 BKN060
TEMPO 0110/0119 4000 SHRA SCT015 SCT020CB BKN025
PROB30
TEMPO 0111/0116 24010G22KT 3000 TSRA FEW010 SCT015CB BKN020
BECMG 0200/0202 VRB03KT



MET'MAP, your aeronautical weather chart ! - Copyright ORBIFLY December 2007 - Disclaimer

ORBIFLY MET'MAP TEAM :

Programming & Development : Alexandra Zaïnal
Concept & original design : Baudouin d'Aumeries
Assistance for programming : Marc-Olivier Méhu
Technical & hardware support : Manuel Goepfert

Contact : metmap@orbifly.com




SOURCES & CREDITS :

   NOAA